CST,Max TemperatureF,Mean TemperatureF,Min TemperatureF,Max Dew PointF,MeanDew PointF,Min DewpointF,Max Humidity, Mean Humidity, Min Humidity, Max Sea Level PressureIn, Mean Sea Level PressureIn, Min Sea Level PressureIn, Max VisibilityMiles, Mean VisibilityMiles, Min VisibilityMiles, Max Wind SpeedMPH, Mean Wind SpeedMPH, Max Gust SpeedMPH,PrecipitationIn, CloudCover, Events, WindDirDegrees
2012-11-1,87,68,49,62,54,46,93,65,37,30.07,30.01,29.96,10,7,0,9,2,14,0.00,1,Fog,252
2012-11-2,87,72,56,65,60,54,93,65,37,30.08,30.02,29.96,10,5,0,13,4,16,0.00,2,Fog,203
2012-11-3,85,73,61,66,62,58,97,71,44,30.13,30.06,30.00,10,4,0,8,3,26,0.46,5,Fog-Rain,162
2012-11-4,81,69,57,61,58,54,93,69,45,30.11,30.07,30.02,10,6,0,10,3,18,0.00,1,Fog,78
2012-11-5,80,67,53,61,56,45,93,68,43,30.06,30.03,29.94,10,6,0,9,3,21,0.00,3,Fog,339
2012-11-6,72,58,44,47,42,38,83,56,29,30.15,30.09,30.04,10,10,10,10,3,15,0.00,0,,342
2012-11-7,76,61,45,48,43,33,93,58,23,30.18,30.13,30.09,10,10,8,10,2,15,0.00,0,,322
2012-11-8,78,62,45,54,46,39,86,62,38,30.22,30.14,30.08,10,10,10,13,7,20,0.00,0,,128
2012-11-9,83,68,53,58,55,50,89,63,37,30.15,30.09,30.04,10,10,10,15,9,21,0.00,0,,144
2012-11-10,83,72,60,62,59,56,93,69,45,30.11,30.05,29.97,10,8,5,21,10,28,0.00,4,,144
2012-11-11,83,68,57,68,63,51,84,76,67,30.13,29.96,29.89,10,9,2,18,9,27,0.26,7,Rain,160
2012-11-12,63,53,42,51,39,30,86,58,30,30.47,30.36,30.20,10,10,10,16,8,23,T,3,,2
2012-11-13,60,47,34,35,31,27,89,58,27,30.51,30.42,30.35,10,10,10,9,4,,0.00,0,,36
2012-11-14,64,51,37,36,33,29,79,54,29,30.42,30.36,30.30,10,10,9,10,3,16,0.00,2,,26
2012-11-15,66,49,32,39,31,28,89,58,26,30.35,30.29,30.23,10,10,8,9,3,14,0.00,0,,44
2012-11-16,66,50,34,39,32,27,89,57,24,30.40,30.34,30.30,10,10,10,12,4,16,0.00,0,,23
2012-11-17,70,52,33,40,35,29,89,56,23,30.40,30.34,30.31,10,10,8,10,3,16,0.00,0,,64
2012-11-18,73,54,35,44,38,33,92,60,27,30.35,30.29,30.24,10,10,8,6,3,,0.00,0,,110
2012-11-19,76,58,40,46,41,37,89,58,27,30.29,30.23,30.16,10,10,10,7,1,10,0.00,0,,114
2012-11-20,80,64,47,56,51,43,89,66,42,30.23,30.18,30.12,10,7,0,5,1,,0.00,3,Fog,162
2012-11-21,82,65,48,58,48,44,93,61,28,30.28,30.21,30.17,10,5,0,8,2,12,0.00,1,Fog,27
2012-11-22,78,61,44,55,49,42,92,66,39,30.22,30.15,30.10,10,10,7,14,4,17,0.00,0,,168
2012-11-23,70,60,50,58,51,29,86,64,41,30.36,30.26,30.15,10,9,5,16,4,23,0.00,6,,7
2012-11-24,61,47,33,34,29,25,85,56,27,30.41,30.31,30.18,10,10,9,12,2,16,0.00,0,,32
2012-11-25,74,54,33,56,42,29,89,62,35,30.16,30.05,29.97,10,10,10,14,6,17,0.00,0,,157
2012-11-26,83,72,61,63,60,57,93,70,47,30.08,29.97,29.92,10,8,1,14,6,20,0.01,5,,171
2012-11-27,64,52,40,54,45,37,83,66,48,30.35,30.26,30.09,10,10,7,12,5,20,T,4,,1
2012-11-28,65,50,34,41,35,31,92,61,30,30.48,30.38,30.32,10,10,6,10,3,14,0.00,0,,81
2012-11-29,71,52,32,46,39,30,89,65,40,30.33,30.25,30.17,10,10,7,7,4,8,0.00,0,,123
2012-11-30,76,62,47,61,55,45,93,79,64,30.22,30.16,30.10,10,6,0,14,7,17,0.00,7,Fog,132